createdAt,value
2023-04-17T00:01:20.906Z,0.35
2023-04-17T00:03:47.791Z,1.33
2023-04-17T00:06:16.262Z,0.85
2023-04-17T00:08:43.541Z,0.70
2023-04-17T00:11:10.247Z,0.52
2023-04-17T00:13:37.136Z,0.30
2023-04-17T00:16:03.852Z,1.58
2023-04-17T00:18:30.514Z,0.43
2023-04-17T00:20:57.303Z,0.90
2023-04-17T00:23:25.620Z,1.38
2023-04-17T00:25:52.304Z,0.68
2023-04-17T00:28:19.321Z,0.73
2023-04-17T00:30:46.653Z,0.30
2023-04-17T00:33:13.394Z,0.57
2023-04-17T00:35:40.221Z,0.52
2023-04-17T00:38:09.062Z,0.20
2023-04-17T00:40:36.185Z,0.30
2023-04-17T00:43:06.479Z,0.40
2023-04-17T00:45:34.374Z,0.40
2023-04-17T00:48:03.463Z,0.50
2023-04-17T00:50:31.080Z,0.45
2023-04-17T00:52:58.543Z,0.38
2023-04-17T00:55:26.488Z,0.32
2023-04-17T00:57:53.502Z,0.32
2023-04-17T01:00:20.440Z,0.50
2023-04-17T01:02:48.335Z,0.40
2023-04-17T01:05:15.241Z,0.32
2023-04-17T01:07:42.631Z,0.50
2023-04-17T01:10:10.274Z,0.40
2023-04-17T01:12:37.049Z,0.45
2023-04-17T01:15:04.847Z,0.65
2023-04-17T01:17:32.150Z,0.57
2023-04-17T01:19:59.124Z,0.30
2023-04-17T01:22:25.887Z,0.22
2023-04-17T01:24:56.918Z,0.93
2023-04-17T01:27:26.252Z,1.30
2023-04-17T01:29:52.930Z,0.50
2023-04-17T01:32:20.168Z,0.47
2023-04-17T01:34:47.014Z,0.38
2023-04-17T01:37:13.670Z,0.20
2023-04-17T01:39:40.964Z,0.20
2023-04-17T01:42:07.798Z,0.30
2023-04-17T01:44:36.719Z,0.38
2023-04-17T01:47:04.026Z,0.32
2023-04-17T01:49:30.891Z,0.40
2023-04-17T01:51:57.593Z,0.20
2023-04-17T01:54:24.978Z,0.22
2023-04-17T01:56:51.718Z,0.40
2023-04-17T01:59:19.014Z,0.20
2023-04-17T02:01:45.778Z,0.70
2023-04-17T02:04:12.637Z,1.15
2023-04-17T02:06:39.338Z,0.40
2023-04-17T02:09:06.150Z,0.52
2023-04-17T02:11:32.961Z,0.35
2023-04-17T02:13:59.642Z,0.20
2023-04-17T02:16:26.664Z,0.47
2023-04-17T02:18:53.569Z,0.20
2023-04-17T02:21:21.121Z,0.50
2023-04-17T02:23:47.833Z,0.50
2023-04-17T02:26:15.025Z,0.47
2023-04-17T02:28:47.909Z,0.47
2023-04-17T02:31:14.941Z,0.60
2023-04-17T02:33:41.671Z,0.40
2023-04-17T02:36:10.304Z,2.05
2023-04-17T02:38:39.698Z,0.55
2023-04-17T02:41:06.752Z,0.43
2023-04-17T02:43:34.305Z,0.35
2023-04-17T02:46:01.426Z,0.38
2023-04-17T02:48:28.295Z,0.95
2023-04-17T02:50:55.184Z,0.73
2023-04-17T02:53:22.309Z,1.95
2023-04-17T02:55:49.863Z,0.30
2023-04-17T02:58:19.297Z,0.32
2023-04-17T03:00:46.311Z,0.20
2023-04-17T03:03:16.505Z,0.60
2023-04-17T03:05:43.482Z,1.25
2023-04-17T03:08:10.573Z,0.32
2023-04-17T03:10:45.824Z,0.43
2023-04-17T03:13:12.632Z,1.35
2023-04-17T03:15:39.393Z,1.10
2023-04-17T03:18:06.192Z,1.10
2023-04-17T03:20:32.988Z,0.90
2023-04-17T03:22:59.776Z,0.65
2023-04-17T03:25:26.551Z,2.58
2023-04-17T03:27:53.938Z,1.23
2023-04-17T03:30:25.415Z,0.40
2023-04-17T03:32:54.348Z,0.77
2023-04-17T03:35:21.213Z,0.50
2023-04-17T03:37:47.837Z,0.80
2023-04-17T03:40:14.602Z,0.80
2023-04-17T03:42:43.916Z,0.50
2023-04-17T03:45:10.846Z,1.70
2023-04-17T03:47:38.456Z,1.40
2023-04-17T03:50:06.200Z,0.35
2023-04-17T03:52:37.384Z,0.47
2023-04-17T03:55:05.842Z,1.42
2023-04-17T03:57:32.715Z,0.98
2023-04-17T03:59:59.556Z,1.00
2023-04-17T04:02:30.367Z,0.75
2023-04-17T04:04:57.431Z,0.95
2023-04-17T04:07:24.123Z,1.35
2023-04-17T04:09:51.048Z,0.30
2023-04-17T04:12:18.735Z,1.42
2023-04-17T04:14:46.175Z,0.50
2023-04-17T04:17:14.809Z,1.23
2023-04-17T04:19:43.432Z,0.70
2023-04-17T04:22:10.367Z,0.75
2023-04-17T04:24:44.382Z,0.75
2023-04-17T04:27:18.203Z,0.95
2023-04-17T04:29:49.602Z,0.90
2023-04-17T04:32:19.700Z,0.88
2023-04-17T04:34:47.349Z,0.65
2023-04-17T04:37:17.772Z,0.60
2023-04-17T04:39:47.195Z,0.70
2023-04-17T04:42:21.865Z,0.57
2023-04-17T04:44:55.775Z,0.90
2023-04-17T04:47:25.744Z,0.75
2023-04-17T04:49:53.764Z,0.60
2023-04-17T04:52:21.799Z,0.55
2023-04-17T04:54:50.264Z,0.85
2023-04-17T04:57:16.968Z,0.57
2023-04-17T04:59:46.383Z,0.85
2023-04-17T05:02:26.079Z,0.63
2023-04-17T05:04:53.396Z,0.93
2023-04-17T05:07:20.675Z,0.73
2023-04-17T05:09:47.430Z,0.75
2023-04-17T05:12:16.205Z,0.70
2023-04-17T05:14:44.049Z,0.70
2023-04-17T05:17:11.033Z,0.50
2023-04-17T05:19:38.502Z,1.30
2023-04-17T05:22:08.514Z,0.93
2023-04-17T05:24:42.798Z,1.20
2023-04-17T05:27:09.830Z,1.23
2023-04-17T05:29:37.499Z,0.90
2023-04-17T05:32:04.504Z,1.10
2023-04-17T05:34:54.355Z,1.13
2023-04-17T05:37:24.804Z,0.90
2023-04-17T05:39:51.642Z,1.67
2023-04-17T05:42:18.331Z,1.42
2023-04-17T05:44:45.822Z,1.40
2023-04-17T05:47:12.578Z,2.38
2023-04-17T05:49:39.457Z,1.23
2023-04-17T05:52:06.314Z,1.50
2023-04-17T05:54:37.511Z,0.80
2023-04-17T05:57:06.040Z,1.35
2023-04-17T05:59:33.037Z,1.42
2023-04-17T06:01:59.917Z,1.50
2023-04-17T06:04:27.101Z,1.60
2023-04-17T06:06:54.005Z,1.45
2023-04-17T06:09:22.717Z,1.20
2023-04-17T06:11:50.605Z,1.50
2023-04-17T06:14:18.478Z,6.53
2023-04-17T06:16:45.939Z,3.38
2023-04-17T06:19:15.596Z,4.25
2023-04-17T06:21:42.282Z,1.75
2023-04-17T06:24:08.955Z,2.78
2023-04-17T06:26:35.751Z,2.67
2023-04-17T06:29:04.836Z,1.85
2023-04-17T06:31:33.353Z,1.55
2023-04-17T06:34:00.256Z,1.80
2023-04-17T06:36:31.694Z,3.45
2023-04-17T06:39:01.503Z,2.00
2023-04-17T06:41:29.603Z,15.43
2023-04-17T06:43:56.253Z,5.53
2023-04-17T06:46:23.304Z,3.42
2023-04-17T06:48:52.181Z,4.75
2023-04-17T06:51:21.003Z,3.20
2023-04-17T06:53:48.306Z,6.15
2023-04-17T06:56:15.359Z,4.38
2023-04-17T06:58:44.412Z,4.00
2023-04-17T07:01:12.787Z,4.07
2023-04-17T07:03:41.102Z,4.15
2023-04-17T07:06:08.513Z,7.20
2023-04-17T07:08:35.465Z,6.05
2023-04-17T07:11:02.707Z,4.82
2023-04-17T07:13:31.519Z,7.85
2023-04-17T07:15:58.404Z,5.60
2023-04-17T07:18:26.774Z,3.75
2023-04-17T07:20:53.472Z,3.20
2023-04-17T07:23:20.195Z,3.85
2023-04-17T07:25:46.921Z,4.50
2023-04-17T07:28:14.372Z,3.35
2023-04-17T07:30:43.886Z,4.10
2023-04-17T07:33:10.790Z,3.78
2023-04-17T07:35:37.705Z,3.42
2023-04-17T07:38:04.587Z,5.03
2023-04-17T07:40:33.218Z,3.78
2023-04-17T07:42:59.902Z,6.60
2023-04-17T07:45:28.412Z,3.63
2023-04-17T07:47:55.263Z,5.25
2023-04-17T07:50:22.264Z,4.63
2023-04-17T07:52:48.944Z,5.43
2023-04-17T07:55:16.582Z,6.47
2023-04-17T07:57:43.470Z,6.47
2023-04-17T08:00:13.171Z,4.30
2023-04-17T08:02:40.441Z,4.78
2023-04-17T08:05:08.049Z,4.20
2023-04-17T08:07:36.017Z,5.47
2023-04-17T08:10:03.853Z,3.63
2023-04-17T08:12:30.570Z,4.15
2023-04-17T08:14:57.284Z,4.00
2023-04-17T08:17:26.063Z,15.43
2023-04-17T08:19:53.850Z,5.95
2023-04-17T08:22:21.928Z,3.55
2023-04-17T08:24:49.507Z,3.45
2023-04-17T08:27:16.520Z,3.75
2023-04-17T08:29:43.775Z,3.50
2023-04-17T08:32:13.879Z,5.53
2023-04-17T08:34:42.353Z,3.78
2023-04-17T08:37:09.008Z,2.55
2023-04-17T08:39:35.719Z,2.65
2023-04-17T08:42:07.712Z,7.30
2023-04-17T08:44:34.491Z,2.80
2023-04-17T08:47:02.409Z,2.05
2023-04-17T08:49:29.810Z,2.58
2023-04-17T08:51:57.065Z,3.58
2023-04-17T08:54:23.790Z,3.40
2023-04-17T08:56:50.602Z,3.60
2023-04-17T08:59:17.891Z,3.85
2023-04-17T09:02:04.782Z,6.35
2023-04-17T09:04:38.819Z,2.92
2023-04-17T09:07:06.557Z,4.65
2023-04-17T09:09:52.728Z,3.78
2023-04-17T09:12:24.196Z,3.65
2023-04-17T09:14:51.046Z,7.00
2023-04-17T09:17:19.850Z,3.70
2023-04-17T09:20:07.349Z,4.93
2023-04-17T09:22:35.818Z,24.20
2023-04-17T09:25:02.916Z,9.63
2023-04-17T09:27:30.094Z,5.13
2023-04-17T09:30:05.118Z,3.97
2023-04-17T09:32:33.804Z,3.10
2023-04-17T09:35:03.717Z,2.08
2023-04-17T09:37:49.535Z,2.42
2023-04-17T09:40:17.210Z,3.37
2023-04-17T09:43:01.146Z,3.53
2023-04-17T09:45:35.269Z,6.03
2023-04-17T09:48:09.105Z,4.80
2023-04-17T09:50:38.455Z,3.47
2023-04-17T09:53:07.118Z,3.38
2023-04-17T09:55:34.710Z,5.28
2023-04-17T09:58:06.107Z,3.17
2023-04-17T10:00:33.007Z,6.22
2023-04-17T10:03:00.449Z,4.20
2023-04-17T10:05:29.840Z,5.28
2023-04-17T10:07:57.019Z,3.88
2023-04-17T10:10:30.310Z,4.57
2023-04-17T10:13:02.625Z,3.72
2023-04-17T10:15:30.478Z,5.20
2023-04-17T10:18:23.011Z,5.05
2023-04-17T10:20:53.091Z,3.70
2023-04-17T10:23:35.847Z,4.57
2023-04-17T10:26:30.698Z,5.05
2023-04-17T10:28:57.810Z,5.65
2023-04-17T10:32:03.138Z,5.03
2023-04-17T10:34:41.005Z,4.38
2023-04-17T10:37:16.483Z,5.10
2023-04-17T10:39:56.623Z,4.70
2023-04-17T10:42:24.275Z,4.15
2023-04-17T10:44:52.094Z,5.38
2023-04-17T10:47:22.460Z,5.38
2023-04-17T10:49:59.881Z,5.47
2023-04-17T10:52:32.782Z,4.65
2023-04-17T10:55:22.000Z,4.75
2023-04-17T10:57:55.790Z,5.25
2023-04-17T11:00:34.008Z,5.28
2023-04-17T11:03:02.753Z,4.75
2023-04-17T11:05:31.338Z,5.22
2023-04-17T11:07:59.052Z,4.95
2023-04-17T11:10:26.408Z,4.03
2023-04-17T11:12:55.598Z,5.20
2023-04-17T11:15:34.189Z,6.45
2023-04-17T11:18:02.105Z,4.78
2023-04-17T11:20:33.823Z,5.60
2023-04-17T11:23:05.932Z,4.60
2023-04-17T11:25:34.083Z,5.10
2023-04-17T11:28:06.059Z,4.78
2023-04-17T11:30:34.446Z,4.60
2023-04-17T11:33:05.726Z,4.65
2023-04-17T11:35:34.366Z,5.43
2023-04-17T11:38:12.197Z,6.25
2023-04-17T11:40:46.173Z,4.78
2023-04-17T11:43:13.591Z,5.40
2023-04-17T11:45:42.566Z,6.60
2023-04-17T11:48:11.583Z,6.30
2023-04-17T11:50:38.877Z,5.20
2023-04-17T11:53:06.437Z,4.88
2023-04-17T11:55:34.454Z,6.28
2023-04-17T11:58:04.108Z,5.40
2023-04-17T12:00:31.587Z,5.25
2023-04-17T12:03:00.511Z,5.20
2023-04-17T12:05:29.868Z,4.47
2023-04-17T12:08:04.604Z,4.90
2023-04-17T12:10:42.722Z,5.60
2023-04-17T12:13:10.638Z,5.22
2023-04-17T12:15:38.548Z,5.88
2023-04-17T12:18:06.220Z,6.10
2023-04-17T12:20:34.608Z,5.45
2023-04-17T12:23:01.968Z,4.93
2023-04-17T12:25:28.751Z,5.20
2023-04-17T12:27:57.041Z,4.40
2023-04-17T12:30:24.342Z,5.63
2023-04-17T12:32:52.148Z,5.07
2023-04-17T12:35:20.262Z,4.70
2023-04-17T12:37:48.637Z,4.97
2023-04-17T12:40:21.372Z,9.82
2023-04-17T12:42:49.920Z,4.65
2023-04-17T12:45:17.504Z,5.13
2023-04-17T12:47:44.520Z,4.97
2023-04-17T12:50:12.102Z,4.78
2023-04-17T12:52:41.264Z,5.95
2023-04-17T12:55:08.733Z,5.00
2023-04-17T12:57:36.531Z,11.75
2023-04-17T13:00:09.136Z,69.68
2023-04-17T13:02:36.452Z,390.15
2023-04-17T13:05:04.263Z,499.08
2023-04-17T13:07:30.947Z,414.02
2023-04-17T13:09:57.669Z,487.30
2023-04-17T13:12:25.303Z,392.77
2023-04-17T13:14:52.657Z,403.63
2023-04-17T13:17:20.927Z,351.42
2023-04-17T13:19:47.653Z,370.30
2023-04-17T13:22:15.540Z,305.20
2023-04-17T13:24:42.308Z,275.20
2023-04-17T13:27:09.851Z,232.40
2023-04-17T13:29:36.573Z,234.38
2023-04-17T13:32:03.324Z,234.52
2023-04-17T13:34:30.018Z,209.35
2023-04-17T13:36:56.938Z,215.25
2023-04-17T13:39:23.604Z,198.30
2023-04-17T13:41:50.393Z,161.32
2023-04-17T13:44:18.508Z,176.40
2023-04-17T13:46:45.347Z,178.00
2023-04-17T13:49:12.448Z,173.60
2023-04-17T13:51:39.402Z,157.18
2023-04-17T13:54:06.608Z,150.85
2023-04-17T13:56:33.435Z,137.73
2023-04-17T13:59:00.100Z,132.82
2023-04-17T14:01:26.864Z,116.55
2023-04-17T14:03:53.652Z,106.15
2023-04-17T14:06:20.595Z,112.38
2023-04-17T14:08:47.337Z,102.90
2023-04-17T14:11:15.345Z,92.00
2023-04-17T14:13:41.982Z,47.38
2023-04-17T14:16:08.785Z,58.22
2023-04-17T14:18:35.598Z,55.00
2023-04-17T14:21:02.293Z,66.07
2023-04-17T14:23:28.959Z,65.80
2023-04-17T14:25:55.712Z,57.42
2023-04-17T14:28:23.582Z,60.28
2023-04-17T14:30:50.558Z,47.88
2023-04-17T14:33:17.295Z,53.20
2023-04-17T14:35:44.089Z,54.45
2023-04-17T14:38:10.793Z,54.92
2023-04-17T14:40:37.737Z,45.58
2023-04-17T14:43:04.480Z,44.58
2023-04-17T14:45:31.186Z,37.58
2023-04-17T14:47:58.000Z,36.42
2023-04-17T14:50:24.818Z,36.28
2023-04-17T14:52:52.151Z,37.28
2023-04-17T14:55:18.873Z,24.98
2023-04-17T14:57:45.610Z,18.33
2023-04-17T15:00:12.822Z,14.25
2023-04-17T15:02:39.676Z,13.88
2023-04-17T15:05:07.357Z,12.27
2023-04-17T15:07:34.517Z,12.48
2023-04-17T15:10:01.279Z,11.95
2023-04-17T15:12:28.060Z,13.23
2023-04-17T15:14:56.342Z,10.95
2023-04-17T15:17:23.092Z,13.43
2023-04-17T15:19:49.872Z,11.30
2023-04-17T15:22:16.583Z,10.20
2023-04-17T15:24:43.276Z,11.80
2023-04-17T15:27:09.984Z,10.05
2023-04-17T15:29:36.753Z,11.73
2023-04-17T15:32:03.489Z,11.55
2023-04-17T15:34:30.282Z,8.68
2023-04-17T15:36:57.596Z,9.45
2023-04-17T15:39:24.242Z,7.68
2023-04-17T15:41:51.525Z,9.48
2023-04-17T15:44:18.265Z,7.10
2023-04-17T15:46:45.196Z,9.50
2023-04-17T15:49:11.979Z,14.27
2023-04-17T15:51:40.936Z,7.03
2023-04-17T15:54:08.835Z,7.43
2023-04-17T15:56:35.583Z,6.50
2023-04-17T15:59:02.494Z,6.72
2023-04-17T16:01:29.730Z,5.95
2023-04-17T16:03:56.492Z,6.95
2023-04-17T16:06:23.298Z,6.63
2023-04-17T16:08:49.990Z,6.72
2023-04-17T16:11:16.625Z,7.03
2023-04-17T16:13:43.322Z,7.00
2023-04-17T16:16:10.786Z,7.05
2023-04-17T16:18:37.482Z,6.05
2023-04-17T16:21:04.203Z,5.53
2023-04-17T16:23:30.855Z,6.80
2023-04-17T16:25:57.494Z,6.75
2023-04-17T16:28:24.429Z,5.25
2023-04-17T16:30:51.072Z,5.85
2023-04-17T16:33:17.712Z,4.93
2023-04-17T16:35:44.461Z,6.93
2023-04-17T16:38:11.170Z,5.00
2023-04-17T16:40:39.237Z,4.78
2023-04-17T16:43:06.296Z,5.28
2023-04-17T16:45:32.979Z,5.80
2023-04-17T16:47:59.744Z,6.18
2023-04-17T16:50:26.465Z,6.32
2023-04-17T16:52:53.142Z,7.95
2023-04-17T16:55:19.828Z,8.50
2023-04-17T16:57:47.844Z,9.02
2023-04-17T17:00:14.835Z,9.93
2023-04-17T17:02:41.735Z,8.98
2023-04-17T17:05:09.126Z,8.30
2023-04-17T17:07:35.812Z,7.57
2023-04-17T17:10:04.422Z,7.07
2023-04-17T17:12:31.073Z,7.18
2023-04-17T17:14:58.132Z,6.97
2023-04-17T17:17:24.872Z,7.55
2023-04-17T17:19:51.603Z,6.97
2023-04-17T17:22:18.278Z,6.75
2023-04-17T17:24:45.216Z,5.85
2023-04-17T17:27:12.954Z,7.00
2023-04-17T17:29:39.735Z,5.20
2023-04-17T17:32:09.083Z,4.28
2023-04-17T17:34:36.027Z,4.93
2023-04-17T17:37:02.669Z,5.63
2023-04-17T17:39:29.341Z,4.53
2023-04-17T17:41:57.135Z,3.53
2023-04-17T17:44:23.885Z,3.78
2023-04-17T17:46:50.622Z,4.28
2023-04-17T17:49:17.509Z,4.25
2023-04-17T17:51:44.403Z,4.40
2023-04-17T17:54:12.184Z,4.70
2023-04-17T17:56:39.055Z,3.58
2023-04-17T17:59:05.691Z,3.53
2023-04-17T18:01:32.375Z,3.75
2023-04-17T18:03:59.485Z,3.17
2023-04-17T18:06:26.676Z,3.55
2023-04-17T18:08:53.845Z,3.20
2023-04-17T18:11:21.179Z,4.40
2023-04-17T18:13:48.168Z,2.90
2023-04-17T18:16:14.890Z,3.28
2023-04-17T18:18:41.575Z,2.72
2023-04-17T18:21:09.261Z,2.75
2023-04-17T18:23:36.025Z,2.83
2023-04-17T18:26:03.362Z,2.85
2023-04-17T18:28:30.099Z,3.05
2023-04-17T18:30:56.767Z,4.85
2023-04-17T18:33:23.482Z,2.38
2023-04-17T18:35:50.208Z,2.50
2023-04-17T18:38:16.929Z,2.38
2023-04-17T18:40:43.570Z,2.10
2023-04-17T18:43:10.410Z,2.22
2023-04-17T18:45:37.236Z,2.30
2023-04-17T18:48:04.216Z,2.78
2023-04-17T18:50:31.133Z,2.40
2023-04-17T18:52:57.797Z,2.70
2023-04-17T18:55:24.503Z,2.22
2023-04-17T18:57:51.181Z,2.42
2023-04-17T19:00:18.040Z,2.70
2023-04-17T19:02:44.871Z,2.72
2023-04-17T19:05:11.758Z,2.58
2023-04-17T19:07:38.442Z,2.53
2023-04-17T19:10:05.583Z,3.65
2023-04-17T19:12:32.297Z,2.75
2023-04-17T19:14:58.950Z,2.38
2023-04-17T19:17:25.688Z,2.33
2023-04-17T19:19:52.493Z,2.60
2023-04-17T19:22:19.441Z,2.00
2023-04-17T19:24:49.692Z,3.75
2023-04-17T19:27:16.997Z,3.03
2023-04-17T19:29:43.775Z,2.60
2023-04-17T19:32:11.098Z,2.95
2023-04-17T19:34:38.266Z,3.13
2023-04-17T19:37:05.237Z,2.80
2023-04-17T19:39:31.882Z,2.67
2023-04-17T19:41:58.591Z,2.65
2023-04-17T19:44:27.765Z,2.63
2023-04-17T19:46:56.626Z,2.55
2023-04-17T19:49:23.279Z,3.28
2023-04-17T19:51:50.081Z,2.70
2023-04-17T19:54:16.796Z,3.10
2023-04-17T19:56:43.471Z,2.65
2023-04-17T19:59:12.509Z,3.50
2023-04-17T20:01:41.520Z,2.72
2023-04-17T20:04:09.813Z,3.28
2023-04-17T20:06:36.602Z,2.85
2023-04-17T20:09:04.629Z,3.00
2023-04-17T20:11:31.371Z,2.80
2023-04-17T20:13:58.100Z,2.50
2023-04-17T20:16:25.106Z,2.40
2023-04-17T20:18:52.049Z,3.15
2023-04-17T20:21:18.858Z,2.63
2023-04-17T20:23:46.795Z,2.53
2023-04-17T20:26:13.893Z,2.55
2023-04-17T20:28:40.994Z,3.55
2023-04-17T20:31:08.078Z,2.83
2023-04-17T20:33:34.783Z,3.58
2023-04-17T20:36:01.957Z,3.03
2023-04-17T20:38:28.784Z,2.60
2023-04-17T20:40:55.492Z,2.42
2023-04-17T20:43:22.169Z,3.10
2023-04-17T20:45:49.635Z,3.10
2023-04-17T20:48:16.549Z,3.55
2023-04-17T20:50:43.419Z,2.97
2023-04-17T20:53:10.205Z,2.53
2023-04-17T20:55:38.008Z,3.13
2023-04-17T20:58:04.888Z,3.30
2023-04-17T21:00:31.602Z,2.88
2023-04-17T21:02:58.358Z,3.97
2023-04-17T21:05:25.168Z,3.03
2023-04-17T21:07:52.918Z,3.78
2023-04-17T21:10:20.296Z,3.08
2023-04-17T21:12:47.142Z,3.13
2023-04-17T21:15:13.796Z,3.25
2023-04-17T21:17:40.581Z,3.15
2023-04-17T21:20:08.104Z,3.90
2023-04-17T21:22:36.727Z,2.90
2023-04-17T21:25:03.496Z,2.80
2023-04-17T21:27:30.633Z,4.15
2023-04-17T21:29:57.274Z,2.80
2023-04-17T21:32:23.996Z,2.83
2023-04-17T21:34:50.731Z,2.90
2023-04-17T21:37:17.369Z,2.97
2023-04-17T21:39:44.394Z,2.97
2023-04-17T21:42:11.065Z,3.00
2023-04-17T21:44:37.722Z,3.08
2023-04-17T21:47:04.391Z,3.42
2023-04-17T21:49:31.017Z,2.88
2023-04-17T21:51:57.762Z,3.65
2023-04-17T21:54:26.664Z,3.33
2023-04-17T21:56:54.043Z,3.38
2023-04-17T21:59:20.730Z,3.13
2023-04-17T22:01:47.380Z,3.28
2023-04-17T22:04:14.371Z,3.28
2023-04-17T22:06:41.656Z,3.30
2023-04-17T22:09:08.760Z,3.20
2023-04-17T22:11:38.137Z,3.00
2023-04-17T22:14:04.831Z,2.75
2023-04-17T22:16:31.514Z,3.25
2023-04-17T22:18:58.379Z,3.55
2023-04-17T22:21:25.027Z,2.72
2023-04-17T22:23:51.675Z,2.85
2023-04-17T22:26:18.352Z,3.38
2023-04-17T22:28:44.977Z,2.45
2023-04-17T22:31:14.735Z,2.85
2023-04-17T22:33:42.902Z,3.20
2023-04-17T22:36:09.605Z,2.30
2023-04-17T22:38:36.311Z,2.60
2023-04-17T22:41:04.212Z,3.17
2023-04-17T22:43:30.885Z,2.30
2023-04-17T22:45:57.567Z,2.38
2023-04-17T22:48:24.724Z,2.63
2023-04-17T22:50:51.502Z,2.40
2023-04-17T22:53:18.135Z,2.95
2023-04-17T22:55:44.842Z,1.90
2023-04-17T22:58:11.525Z,2.78
2023-04-17T23:00:38.275Z,2.33
2023-04-17T23:03:05.000Z,2.38
2023-04-17T23:05:31.891Z,4.05
2023-04-17T23:07:58.780Z,2.55
2023-04-17T23:10:25.476Z,2.50
2023-04-17T23:12:52.111Z,9.20
2023-04-17T23:15:18.814Z,6.75
2023-04-17T23:17:45.529Z,4.78
2023-04-17T23:20:13.041Z,4.20
2023-04-17T23:22:39.734Z,5.00
2023-04-17T23:25:07.044Z,2.65
2023-04-17T23:27:33.714Z,1.77
2023-04-17T23:30:00.386Z,2.92
2023-04-17T23:32:27.149Z,2.05
2023-04-17T23:34:53.909Z,2.90
2023-04-17T23:37:20.622Z,2.33
2023-04-17T23:39:47.559Z,1.80
2023-04-17T23:42:14.500Z,1.60
2023-04-17T23:44:41.368Z,2.00
2023-04-17T23:47:09.081Z,2.35
2023-04-17T23:49:36.009Z,2.45
2023-04-17T23:52:02.698Z,1.67
2023-04-17T23:54:29.421Z,3.28
2023-04-17T23:56:56.455Z,2.15
2023-04-17T23:59:23.157Z,2.17
